Time;durP1;ratioP1;P1;durP2;ratioP2;P2;SDS_P1;SDS_P2;PMS_P1;PMS_P2;Temp;Humidity;BMP_temperature;BMP_pressure;BME280_temperature;BME280_humidity;BME280_pressure;Samples;Min_cycle;Max_cycle;Signal;HPM_P1;HPM_P2
2021/09/10 00:04:49;;;;;;;25.90;16.20;;;;;;;14.62;62.94;99222.61;234226;1198;138861;-62
2021/09/10 00:09:52;;;;;;;28.80;17.60;;;;;;;14.57;62.93;99225.50;233919;1198;138509;-60
2021/09/10 00:14:55;;;;;;;29.30;16.90;;;;;;;14.47;63.09;99229.05;234145;1198;139104;-62
2021/09/10 00:19:58;;;;;;;27.50;17.70;;;;;;;14.41;63.24;99222.36;233867;1196;139332;-62
2021/09/10 00:25:01;;;;;;;27.00;15.80;;;;;;;14.36;63.45;99224.70;234238;1197;139006;-61
2021/09/10 00:30:06;;;;;;;26.10;15.60;;;;;;;14.33;63.25;99229.19;233987;1198;139329;-63
2021/09/10 00:35:11;;;;;;;25.00;16.50;;;;;;;14.31;63.45;99232.59;234070;1198;139926;-59
2021/09/10 00:40:14;;;;;;;27.00;16.00;;;;;;;14.30;63.63;99224.98;234223;1198;138918;-61
2021/09/10 00:45:17;;;;;;;25.90;15.70;;;;;;;14.30;63.70;99224.45;234150;1198;138736;-59
2021/09/10 00:50:20;;;;;;;24.90;15.80;;;;;;;14.26;63.84;99229.06;234217;1198;140236;-61
2021/09/10 00:55:25;;;;;;;25.50;16.00;;;;;;;14.19;63.74;99230.29;233950;1194;138591;-61
2021/09/10 01:00:28;;;;;;;27.10;15.90;;;;;;;14.09;63.90;99227.05;234249;1198;138621;-62
2021/09/10 01:05:32;;;;;;;24.80;14.60;;;;;;;14.03;63.90;99232.34;234101;1198;138347;-61
2021/09/10 01:10:35;;;;;;;24.50;14.30;;;;;;;13.99;63.86;99233.14;234084;1198;139668;-66
2021/09/10 01:15:38;;;;;;;23.00;14.40;;;;;;;13.96;63.72;99231.98;233863;1198;139266;-60
2021/09/10 01:20:41;;;;;;;22.10;14.00;;;;;;;13.88;63.61;99239.48;234103;1198;140083;-62
2021/09/10 01:25:44;;;;;;;26.20;15.20;;;;;;;13.81;63.71;99235.20;234161;1197;139396;-62
2021/09/10 01:30:48;;;;;;;22.10;14.60;;;;;;;13.75;63.50;99243.64;234354;1198;138615;-59
2021/09/10 01:35:51;;;;;;;28.30;14.60;;;;;;;13.69;63.59;99249.20;234059;1198;139823;-60
2021/09/10 01:40:54;;;;;;;25.10;15.10;;;;;;;13.60;63.55;99250.10;234103;1198;138329;-59
2021/09/10 01:45:57;;;;;;;20.60;13.30;;;;;;;13.46;63.69;99254.58;234149;1197;140326;-60
2021/09/10 01:51:00;;;;;;;26.50;13.70;;;;;;;13.40;63.65;99261.81;234227;1198;140554;-62
2021/09/10 01:56:03;;;;;;;26.70;14.40;;;;;;;13.36;63.76;99264.39;234249;1198;139339;-59
2021/09/10 02:01:06;;;;;;;22.60;13.70;;;;;;;13.34;63.93;99258.29;234387;1198;139551;-61
2021/09/10 02:06:10;;;;;;;28.70;14.20;;;;;;;13.31;63.84;99258.52;234160;1198;139658;-61
2021/09/10 02:11:14;;;;;;;21.30;13.30;;;;;;;13.31;63.70;99256.19;233948;1198;141209;-62
2021/09/10 02:16:17;;;;;;;28.20;14.70;;;;;;;13.24;63.72;99251.88;233953;1198;138813;-61
2021/09/10 02:21:20;;;;;;;22.60;14.30;;;;;;;13.17;63.83;99250.73;233913;1198;139257;-61
2021/09/10 02:26:23;;;;;;;21.80;13.60;;;;;;;13.08;64.04;99244.55;234201;1198;139340;-63
2021/09/10 02:31:26;;;;;;;22.20;13.00;;;;;;;13.04;64.07;99250.92;234241;1197;140403;-63
2021/09/10 02:36:29;;;;;;;22.50;14.20;;;;;;;13.05;64.25;99249.98;234448;1198;139837;-59
2021/09/10 02:41:33;;;;;;;24.80;14.80;;;;;;;13.08;64.40;99248.90;234014;1198;138630;-61
2021/09/10 02:46:38;;;;;;;20.00;14.20;;;;;;;13.04;64.41;99242.58;234361;1197;139025;-61
2021/09/10 02:51:41;;;;;;;24.50;14.80;;;;;;;12.99;64.54;99238.73;234309;1198;139481;-61
2021/09/10 02:56:44;;;;;;;22.10;14.50;;;;;;;12.95;64.40;99239.05;234386;1198;139204;-62
2021/09/10 03:01:48;;;;;;;21.50;13.30;;;;;;;12.92;64.74;99236.60;234395;1197;138544;-64
2021/09/10 03:06:51;;;;;;;23.00;13.10;;;;;;;12.89;64.70;99234.49;233893;1198;138776;-63
2021/09/10 03:11:54;;;;;;;22.50;13.50;;;;;;;12.88;64.95;99240.41;234237;1198;138841;-64
2021/09/10 03:16:58;;;;;;;23.80;14.20;;;;;;;12.88;64.85;99244.88;234119;1198;138424;-62
2021/09/10 03:22:01;;;;;;;29.60;14.60;;;;;;;12.83;64.76;99242.91;233969;1198;139060;-64
2021/09/10 03:27:05;;;;;;;26.90;13.90;;;;;;;12.78;64.71;99245.88;234354;1198;150858;-64
2021/09/10 03:32:08;;;;;;;24.60;14.10;;;;;;;12.75;64.69;99246.67;234244;1195;138378;-62
2021/09/10 03:37:12;;;;;;;28.40;13.60;;;;;;;12.70;64.73;99243.80;234210;1198;138425;-62
2021/09/10 03:42:15;;;;;;;26.30;13.80;;;;;;;12.61;64.67;99245.13;234177;1198;139276;-63
2021/09/10 03:47:18;;;;;;;23.80;12.90;;;;;;;12.55;64.65;99244.94;233929;1198;139543;-63
2021/09/10 03:52:22;;;;;;;24.80;13.60;;;;;;;12.53;64.80;99244.17;234310;1198;138788;-63
2021/09/10 03:57:25;;;;;;;27.00;13.90;;;;;;;12.52;64.93;99241.80;234025;1198;139101;-62
2021/09/10 04:02:28;;;;;;;26.20;13.80;;;;;;;12.49;64.69;99247.34;234329;1198;138926;-62
2021/09/10 04:07:31;;;;;;;25.10;13.00;;;;;;;12.46;64.80;99254.50;234033;1198;139379;-60
2021/09/10 04:12:36;;;;;;;23.90;13.00;;;;;;;12.42;64.70;99258.29;234242;1198;139184;-60
2021/09/10 04:17:39;;;;;;;24.30;13.00;;;;;;;12.37;64.91;99253.66;234317;1198;138301;-64
2021/09/10 04:22:42;;;;;;;23.40;13.10;;;;;;;12.30;64.70;99253.91;234320;1198;139348;-63
2021/09/10 04:27:45;;;;;;;24.80;13.20;;;;;;;12.25;64.96;99254.77;234332;1198;139295;-67
2021/09/10 04:32:49;;;;;;;27.40;13.40;;;;;;;12.25;64.84;99255.33;234266;1198;138719;-65
2021/09/10 04:37:52;;;;;;;28.50;13.20;;;;;;;12.26;64.98;99257.36;234313;1198;138672;-62
2021/09/10 04:42:55;;;;;;;28.40;14.10;;;;;;;12.23;65.10;99259.71;234137;1198;138229;-64
2021/09/10 04:47:58;;;;;;;23.50;12.80;;;;;;;12.23;65.13;99263.98;234154;1198;138664;-63
2021/09/10 04:53:01;;;;;;;27.30;12.80;;;;;;;12.24;65.25;99265.02;234149;1198;139253;-63
2021/09/10 04:58:04;;;;;;;22.00;11.80;;;;;;;12.24;65.41;99266.77;234041;1198;138496;-60
2021/09/10 05:03:07;;;;;;;23.70;12.40;;;;;;;12.26;65.12;99274.44;234229;1198;212822;-61
2021/09/10 05:08:11;;;;;;;24.70;12.70;;;;;;;12.33;65.68;99271.86;234019;1198;139914;-61
2021/09/10 05:13:14;;;;;;;23.10;12.60;;;;;;;12.40;65.35;99271.62;234240;1198;139758;-60
2021/09/10 05:18:17;;;;;;;22.70;12.90;;;;;;;12.46;65.68;99272.41;234190;1198;139439;-60
2021/09/10 05:23:22;;;;;;;21.90;11.90;;;;;;;12.52;65.62;99273.48;232777;1198;138774;-62
2021/09/10 05:28:26;;;;;;;22.20;13.30;;;;;;;12.57;65.83;99273.15;234156;1198;139042;-63
2021/09/10 05:33:28;;;;;;;29.60;13.50;;;;;;;12.61;65.85;99271.64;234069;1198;138592;-61
2021/09/10 05:38:32;;;;;;;36.10;13.70;;;;;;;12.68;66.22;99266.86;233923;1198;139474;-63
2021/09/10 05:43:35;;;;;;;57.50;15.50;;;;;;;12.79;66.11;99265.25;234255;1198;138915;-66
2021/09/10 05:48:38;;;;;;;53.80;16.40;;;;;;;12.94;66.16;99263.15;234450;1198;138838;-64
2021/09/10 05:53:41;;;;;;;59.00;16.40;;;;;;;13.09;66.38;99272.64;234155;1198;208320;-62
2021/09/10 05:58:44;;;;;;;51.90;15.40;;;;;;;13.22;66.61;99271.60;234134;1198;139166;-63
2021/09/10 06:03:47;;;;;;;52.30;15.70;;;;;;;13.33;66.63;99274.21;234286;1198;139540;-63
2021/09/10 06:08:54;;;;;;;31.20;15.10;;;;;;;13.44;66.54;99274.34;233699;1198;138342;-64
2021/09/10 06:13:56;;;;;;;42.20;24.20;;;;;;;13.59;66.91;99278.11;234166;1198;139537;-63
2021/09/10 06:18:59;;;;;;;35.60;23.60;;;;;;;14.28;69.09;99277.98;234038;1198;139596;-66
2021/09/10 06:24:02;;;;;;;32.50;19.60;;;;;;;15.17;69.12;99275.92;234295;1198;138468;-64
2021/09/10 06:29:06;;;;;;;33.20;14.90;;;;;;;15.68;67.87;99271.20;234327;1195;142022;-64
2021/09/10 06:34:08;;;;;;;19.10;9.50;;;;;;;16.04;66.98;99269.83;234107;1198;140565;-63
2021/09/10 06:39:12;;;;;;;40.10;23.10;;;;;;;16.19;66.00;99270.34;233811;1198;138765;-62
2021/09/10 06:44:16;;;;;;;31.30;20.20;;;;;;;16.34;65.67;99273.09;234201;1198;138383;-62
2021/09/10 06:49:19;;;;;;;115.50;88.50;;;;;;;16.59;65.76;99277.27;234112;1198;139635;-62
2021/09/10 06:54:22;;;;;;;33.30;20.50;;;;;;;16.95;65.55;99284.37;233996;1198;139553;-62
2021/09/10 06:59:25;;;;;;;21.20;13.30;;;;;;;17.28;64.57;99289.62;234139;1198;139260;-69
2021/09/10 07:04:28;;;;;;;17.30;10.40;;;;;;;17.42;64.04;99295.36;234285;1198;138833;-66
2021/09/10 07:09:34;;;;;;;33.00;18.60;;;;;;;17.49;63.64;99299.06;234102;1198;138539;-69
2021/09/10 07:14:37;;;;;;;18.90;9.40;;;;;;;17.48;62.90;99300.41;233724;1198;139876;-65
2021/09/10 07:19:40;;;;;;;48.20;31.70;;;;;;;17.52;62.82;99303.34;234001;1198;138329;-65
2021/09/10 07:24:48;;;;;;;18.40;11.30;;;;;;;17.59;62.87;99299.31;234435;1198;139145;-61
2021/09/10 07:29:51;;;;;;;26.30;18.20;;;;;;;17.72;62.72;99298.85;233666;1198;139062;-64
2021/09/10 07:34:54;;;;;;;28.40;17.70;;;;;;;17.88;62.74;99300.94;233872;1198;138523;-64
2021/09/10 07:39:57;;;;;;;45.20;22.20;;;;;;;18.06;62.87;99299.82;233673;1198;138411;-63
2021/09/10 07:45:00;;;;;;;63.00;36.60;;;;;;;18.22;62.88;99298.08;234275;1198;138777;-62
2021/09/10 07:50:03;;;;;;;40.40;24.00;;;;;;;18.35;61.97;99297.09;234020;1198;138947;-63
2021/09/10 07:55:07;;;;;;;70.60;48.70;;;;;;;18.43;61.80;99304.40;234247;1198;139155;-62
2021/09/10 08:00:10;;;;;;;48.30;33.60;;;;;;;18.55;61.84;99304.83;234175;1198;138711;-62
2021/09/10 08:05:13;;;;;;;73.60;47.10;;;;;;;18.65;61.56;99313.21;233990;1198;138834;-61
2021/09/10 08:10:17;;;;;;;61.00;37.30;;;;;;;18.76;61.46;99306.27;234019;1198;139147;-61
2021/09/10 08:15:20;;;;;;;38.10;23.50;;;;;;;18.87;61.06;99305.32;234077;1198;138726;-63
2021/09/10 08:20:23;;;;;;;39.90;15.00;;;;;;;18.94;60.63;99308.63;234199;1198;138970;-62
2021/09/10 08:25:26;;;;;;;75.20;33.00;;;;;;;19.00;60.19;99304.46;234310;1198;138977;-62
2021/09/10 08:30:31;;;;;;;22.40;9.80;;;;;;;19.06;60.19;99302.30;234001;1198;138672;-61
2021/09/10 08:35:34;;;;;;;43.50;24.30;;;;;;;19.13;59.70;99300.39;234191;1198;138685;-62
2021/09/10 08:40:37;;;;;;;34.60;19.10;;;;;;;19.19;59.67;99295.16;234206;1198;138804;-62
2021/09/10 08:45:41;;;;;;;20.70;9.90;;;;;;;19.24;59.62;99292.39;234280;1198;138806;-64
2021/09/10 08:50:47;;;;;;;17.70;9.80;;;;;;;19.32;59.45;99289.61;234273;1198;138234;-66
2021/09/10 08:55:50;;;;;;;16.50;8.60;;;;;;;19.39;59.42;99287.52;234292;1198;138200;-63
2021/09/10 09:00:59;;;;;;;13.90;6.50;;;;;;;19.47;59.15;99286.37;234369;1198;138883;-62
2021/09/10 09:06:02;;;;;;;12.70;5.50;;;;;;;19.55;58.67;99282.91;234264;1197;138774;-61
2021/09/10 09:11:09;;;;;;;10.40;5.20;;;;;;;19.66;57.96;99283.30;234252;1198;138611;-64
2021/09/10 09:16:27;;;;;;;10.00;4.40;;;;;;;19.79;57.41;99280.86;234232;1198;138351;-61
2021/09/10 09:21:32;;;;;;;12.80;5.50;;;;;;;19.92;57.21;99281.22;234274;1198;138323;-63
2021/09/10 09:26:35;;;;;;;11.00;4.60;;;;;;;20.03;56.88;99273.40;234318;1198;138028;-64
2021/09/10 09:31:39;;;;;;;8.00;4.70;;;;;;;20.16;56.65;99268.95;234199;1198;139484;-62
2021/09/10 09:36:53;;;;;;;8.70;4.30;;;;;;;20.28;56.03;99263.19;234409;1198;140099;-60
2021/09/10 09:42:08;;;;;;;7.30;4.10;;;;;;;20.41;55.74;99262.30;234298;1198;139067;-61
2021/09/10 09:47:13;;;;;;;9.30;4.10;;;;;;;20.53;55.43;99257.34;234290;1198;138877;-61
2021/09/10 09:52:17;;;;;;;13.90;4.30;;;;;;;20.66;54.88;99251.38;234175;1198;138458;-60
2021/09/10 09:57:22;;;;;;;8.90;4.40;;;;;;;20.77;54.73;99250.47;234142;1198;138137;-61
2021/09/10 10:02:26;;;;;;;12.00;4.50;;;;;;;20.86;54.46;99241.98;234179;1198;138936;-60
2021/09/10 10:07:45;;;;;;;6.10;3.70;;;;;;;21.04;54.40;99242.52;234262;1198;138674;-61
2021/09/10 10:12:51;;;;;;;11.80;4.30;;;;;;;21.19;53.53;99241.83;234263;1198;138099;-60
2021/09/10 10:17:56;;;;;;;8.20;4.10;;;;;;;21.38;53.40;99238.42;234013;1199;138306;-62
2021/09/10 10:22:59;;;;;;;;;;;;;;;21.62;52.84;99234.31;234056;1198;138013;-62
2021/09/10 10:28:07;;;;;;;7.50;3.70;;;;;;;21.84;52.22;99232.33;234293;1198;126185;-61
2021/09/10 10:33:28;;;;;;;5.60;3.40;;;;;;;22.05;51.92;99225.23;234060;1198;138208;-62
2021/09/10 10:38:32;;;;;;;12.50;3.20;;;;;;;22.27;51.22;99226.01;234066;1199;138689;-62
2021/09/10 10:43:36;;;;;;;8.40;3.60;;;;;;;22.47;50.72;99221.88;234096;1199;138764;-63
2021/09/10 10:48:43;;;;;;;5.50;3.10;;;;;;;22.59;50.44;99216.13;234307;1198;138614;-62
2021/09/10 10:53:46;;;;;;;8.50;3.30;;;;;;;22.65;50.05;99213.30;234136;1198;138641;-61
2021/09/10 10:59:12;;;;;;;9.10;3.20;;;;;;;22.73;49.41;99216.99;233997;1199;138490;-62
2021/09/10 11:04:26;;;;;;;8.50;3.30;;;;;;;22.78;48.73;99212.31;234321;1197;138711;-61
2021/09/10 11:09:30;;;;;;;7.30;3.20;;;;;;;22.84;48.58;99208.48;234061;1199;138133;-62
2021/09/10 11:14:34;;;;;;;5.90;3.10;;;;;;;22.90;47.97;99201.49;234064;1198;138361;-62
2021/09/10 11:19:38;;;;;;;5.60;2.90;;;;;;;22.95;47.17;99203.02;234197;1198;138192;-62
2021/09/10 11:24:42;;;;;;;5.40;2.80;;;;;;;22.98;46.67;99199.95;234298;1198;138481;-62
2021/09/10 11:29:45;;;;;;;6.30;2.80;;;;;;;23.02;46.04;99193.89;234208;1198;138871;-62
2021/09/10 11:34:48;;;;;;;11.70;3.40;;;;;;;23.10;45.94;99186.68;234241;1198;139253;-61
2021/09/10 11:39:51;;;;;;;6.30;3.10;;;;;;;23.20;45.92;99180.45;234162;1198;138806;-61
2021/09/10 11:45:08;;;;;;;7.40;3.50;;;;;;;23.29;45.34;99171.30;234225;1198;139061;-62
2021/09/10 11:50:12;;;;;;;4.70;3.00;;;;;;;23.46;45.78;99159.48;234243;1198;138380;-61
2021/09/10 11:55:18;;;;;;;8.70;3.40;;;;;;;23.68;45.63;99156.59;234371;1198;138126;-63
2021/09/10 12:00:26;;;;;;;5.50;2.90;;;;;;;23.88;45.17;99157.54;234231;1198;138257;-63
2021/09/10 12:05:30;;;;;;;5.50;2.80;;;;;;;24.09;44.71;99150.17;234208;1198;138949;-62
2021/09/10 12:10:35;;;;;;;8.40;3.10;;;;;;;24.31;44.40;99149.42;233827;1198;138410;-61
2021/09/10 12:15:42;;;;;;;4.40;3.00;;;;;;;24.53;44.26;99141.40;234158;1198;138123;-61
2021/09/10 12:20:53;;;;;;;6.40;3.40;;;;;;;24.78;44.24;99141.49;234171;1195;138131;-62
2021/09/10 12:25:59;;;;;;;5.30;3.10;;;;;;;25.01;43.56;99138.00;234300;1198;137970;-61
2021/09/10 12:31:05;;;;;;;;;;;;;;;25.16;43.16;99127.85;234374;1195;138560;-62
2021/09/10 12:36:10;;;;;;;8.30;3.30;;;;;;;25.38;43.07;99128.88;234241;1198;124699;-63
2021/09/10 12:41:15;;;;;;;5.50;3.00;;;;;;;25.53;42.65;99122.48;234212;1198;138391;-61
2021/09/10 12:46:18;;;;;;;6.80;3.70;;;;;;;25.69;42.28;99112.98;234124;1198;138760;-63
2021/09/10 12:51:23;;;;;;;9.30;3.40;;;;;;;25.89;42.46;99108.52;234164;1198;138291;-60
2021/09/10 12:56:27;;;;;;;6.40;3.20;;;;;;;26.04;41.88;99101.54;234276;1198;139303;-63
2021/09/10 13:01:31;;;;;;;10.10;3.50;;;;;;;26.13;41.01;99101.89;234272;1198;137762;-64
2021/09/10 13:06:35;;;;;;;12.00;4.30;;;;;;;26.19;40.82;99103.52;234303;1198;139451;-62
2021/09/10 13:11:40;;;;;;;;;;;;;;;26.34;40.99;99094.25;234167;1198;138136;-63
2021/09/10 13:16:44;;;;;;;5.00;3.10;;;;;;;26.48;40.48;99085.11;234250;1198;124673;-63
2021/09/10 13:21:47;;;;;;;8.90;3.30;;;;;;;26.58;40.21;99083.92;234273;1197;138812;-61
2021/09/10 13:26:51;;;;;;;6.10;3.10;;;;;;;26.73;39.94;99082.88;234131;1198;140258;-63
2021/09/10 13:31:54;;;;;;;5.60;3.00;;;;;;;26.81;39.64;99074.27;234210;1198;138279;-61
2021/09/10 13:36:58;;;;;;;8.80;3.20;;;;;;;26.88;39.54;99080.33;234284;1198;138891;-62
2021/09/10 13:42:04;;;;;;;6.80;3.50;;;;;;;26.96;39.44;99079.01;234230;1198;139110;-65
2021/09/10 13:47:08;;;;;;;7.90;3.20;;;;;;;27.00;39.32;99079.64;234115;1198;139364;-63
2021/09/10 13:52:11;;;;;;;5.50;3.00;;;;;;;27.00;38.85;99080.66;234187;1199;139784;-60
2021/09/10 13:57:15;;;;;;;8.70;3.60;;;;;;;26.95;38.87;99077.40;234243;1198;138421;-63
2021/09/10 14:02:19;;;;;;;5.10;3.40;;;;;;;26.79;38.52;99072.39;234244;1198;139065;-63
2021/09/10 14:07:26;;;;;;;7.40;3.60;;;;;;;26.50;38.65;99074.14;234196;1195;138574;-61
2021/09/10 14:12:31;;;;;;;4.20;3.00;;;;;;;26.14;38.63;99072.61;233925;1198;138403;-62
2021/09/10 14:17:35;;;;;;;4.90;3.70;;;;;;;25.84;38.92;99074.02;234245;1198;138834;-62
2021/09/10 14:22:42;;;;;;;9.80;4.40;;;;;;;25.54;39.14;99073.45;234056;1198;138987;-61
2021/09/10 14:27:46;;;;;;;9.60;3.80;;;;;;;25.26;39.66;99071.75;234010;1199;138918;-60
2021/09/10 14:32:49;;;;;;;11.00;4.10;;;;;;;24.99;39.73;99079.08;234158;1197;138914;-61
2021/09/10 14:37:52;;;;;;;6.90;3.70;;;;;;;24.77;40.01;99085.99;234168;1198;138661;-62
2021/09/10 14:42:59;;;;;;;8.00;4.00;;;;;;;24.57;40.09;99082.48;234333;1198;140569;-63
2021/09/10 14:48:06;;;;;;;4.70;3.20;;;;;;;24.42;39.93;99081.38;234148;1197;138799;-62
2021/09/10 14:53:09;;;;;;;6.00;3.10;;;;;;;24.28;39.97;99080.15;234090;1198;138684;-63
2021/09/10 14:58:12;;;;;;;9.50;3.40;;;;;;;24.15;40.11;99079.16;234216;1198;138822;-64
2021/09/10 15:03:15;;;;;;;8.30;3.80;;;;;;;24.02;40.16;99082.65;234279;1198;138242;-61
2021/09/10 15:08:19;;;;;;;9.50;5.20;;;;;;;23.88;40.49;99080.67;234037;1198;138766;-61
2021/09/10 15:13:23;;;;;;;8.00;4.10;;;;;;;23.77;40.88;99079.31;234180;1198;138675;-60
2021/09/10 15:18:26;;;;;;;7.30;4.40;;;;;;;23.64;41.14;99081.30;234240;1198;138538;-62
2021/09/10 15:23:29;;;;;;;9.00;4.20;;;;;;;23.51;41.46;99075.30;234338;1198;138912;-61
2021/09/10 15:28:32;;;;;;;6.80;4.10;;;;;;;23.39;41.74;99073.83;233811;1199;140478;-64
2021/09/10 15:33:35;;;;;;;6.80;4.30;;;;;;;23.29;42.00;99076.76;234118;1198;138502;-61
2021/09/10 15:38:40;;;;;;;8.30;4.00;;;;;;;23.21;42.28;99072.52;234237;1197;138821;-61
2021/09/10 15:43:43;;;;;;;6.40;4.40;;;;;;;23.13;42.61;99072.31;234153;1198;138557;-61
2021/09/10 15:48:46;;;;;;;7.30;4.60;;;;;;;23.05;42.92;99067.31;234221;1198;138610;-60
2021/09/10 15:53:53;;;;;;;10.70;4.40;;;;;;;22.97;42.92;99066.34;234217;1198;138454;-66
2021/09/10 15:58:59;;;;;;;11.40;4.50;;;;;;;22.89;43.06;99066.61;234229;1197;139117;-63
2021/09/10 16:04:03;;;;;;;7.50;4.40;;;;;;;22.77;43.10;99067.43;234317;1198;138468;-62
2021/09/10 16:09:07;;;;;;;8.10;4.20;;;;;;;22.72;43.36;99063.17;234217;1198;138867;-62
2021/09/10 16:14:11;;;;;;;10.40;5.30;;;;;;;22.65;43.71;99056.17;234308;1197;139539;-61
2021/09/10 16:19:15;;;;;;;12.20;5.60;;;;;;;22.61;44.08;99056.48;234361;1198;139916;-61
2021/09/10 16:24:18;;;;;;;13.40;5.60;;;;;;;22.56;44.37;99057.91;234101;1198;138653;-61
2021/09/10 16:29:21;;;;;;;14.60;5.60;;;;;;;22.52;44.78;99057.88;234077;1198;138559;-62
2021/09/10 16:34:24;;;;;;;16.70;6.10;;;;;;;22.44;45.32;99056.71;233502;1198;138573;-62
2021/09/10 16:39:28;;;;;;;20.50;6.80;;;;;;;22.36;45.63;99057.45;234063;1198;138921;-63
2021/09/10 16:44:31;;;;;;;12.30;6.10;;;;;;;22.24;46.00;99058.40;233955;1198;139576;-60
2021/09/10 16:49:34;;;;;;;17.50;7.60;;;;;;;22.13;46.37;99062.47;234194;1199;140302;-60
2021/09/10 16:54:37;;;;;;;12.70;7.20;;;;;;;21.99;46.73;99064.31;234044;1199;138638;-62
2021/09/10 16:59:41;;;;;;;25.00;7.60;;;;;;;21.88;47.14;99061.27;234144;1198;141514;-61
2021/09/10 17:04:44;;;;;;;35.90;17.70;;;;;;;21.74;47.68;99066.02;234161;1198;140054;-63
2021/09/10 17:09:47;;;;;;;187.70;132.70;;;;;;;21.61;48.02;99073.38;233863;1199;138397;-62
2021/09/10 17:14:51;;;;;;;57.90;37.00;;;;;;;21.49;48.66;99074.46;233709;1198;139902;-62
2021/09/10 17:19:57;;;;;;;34.10;17.50;;;;;;;21.38;48.90;99078.37;234164;1198;138574;-62
2021/09/10 17:25:00;;;;;;;34.00;19.00;;;;;;;21.27;49.43;99078.26;233914;1198;138278;-62
2021/09/10 17:30:05;;;;;;;20.40;9.30;;;;;;;21.16;49.84;99090.16;234028;1198;139489;-62
2021/09/10 17:35:08;;;;;;;49.80;27.90;;;;;;;21.10;50.14;99097.04;233997;1199;139020;-64
2021/09/10 17:40:12;;;;;;;421.10;348.20;;;;;;;21.01;50.42;99102.63;233974;1198;139100;-63
2021/09/10 17:45:16;;;;;;;57.20;37.40;;;;;;;20.93;50.70;99110.50;234186;1195;139117;-62
2021/09/10 17:50:20;;;;;;;46.50;27.40;;;;;;;20.84;50.98;99111.79;234197;1198;138916;-62
2021/09/10 17:55:24;;;;;;;463.70;355.00;;;;;;;20.74;51.19;99109.75;233983;1198;138847;-62
2021/09/10 18:00:27;;;;;;;84.70;55.20;;;;;;;20.65;51.58;99118.48;234283;1198;139407;-64
2021/09/10 18:05:33;;;;;;;52.30;35.90;;;;;;;20.53;51.76;99121.42;233844;1198;138510;-63
2021/09/10 18:10:38;;;;;;;46.50;30.40;;;;;;;20.43;52.06;99121.55;234222;1198;138974;-63
2021/09/10 18:15:41;;;;;;;31.10;16.80;;;;;;;20.31;52.46;99125.41;234041;1198;139423;-62
2021/09/10 18:20:45;;;;;;;86.60;60.30;;;;;;;20.21;52.66;99129.50;234124;1198;139190;-61
2021/09/10 18:25:49;;;;;;;50.00;32.70;;;;;;;20.12;52.98;99132.23;234236;1195;139196;-61
2021/09/10 18:30:52;;;;;;;18.70;10.30;;;;;;;20.03;53.22;99137.30;234375;1198;139525;-62
2021/09/10 18:35:55;;;;;;;21.50;11.80;;;;;;;19.86;53.38;99140.58;234223;1198;138833;-62
2021/09/10 18:40:59;;;;;;;25.30;12.60;;;;;;;19.70;53.62;99150.44;234259;1198;141083;-62
2021/09/10 18:46:02;;;;;;;23.60;13.00;;;;;;;19.54;53.88;99156.65;234305;1198;139111;-62
2021/09/10 18:51:05;;;;;;;38.50;21.10;;;;;;;19.38;54.30;99153.67;234058;1198;139144;-64
2021/09/10 18:56:09;;;;;;;46.30;23.70;;;;;;;19.22;54.52;99155.48;233917;1198;140565;-62
2021/09/10 19:01:12;;;;;;;52.40;24.60;;;;;;;19.08;54.88;99153.40;234306;1198;138717;-59
2021/09/10 19:06:16;;;;;;;45.20;23.10;;;;;;;18.98;55.31;99154.10;234302;1196;139161;-61
2021/09/10 19:11:19;;;;;;;42.60;21.50;;;;;;;18.95;55.49;99155.70;234236;1198;139275;-61
2021/09/10 19:16:23;;;;;;;41.50;20.20;;;;;;;18.92;55.85;99149.30;234195;1198;138639;-62
2021/09/10 19:21:28;;;;;;;37.60;19.40;;;;;;;18.88;56.07;99144.61;234074;1198;139183;-62
2021/09/10 19:26:31;;;;;;;38.60;18.50;;;;;;;18.81;56.30;99142.42;234284;1198;138421;-62
2021/09/10 19:31:38;;;;;;;44.20;18.50;;;;;;;18.74;56.26;99148.69;234403;1198;139272;-63
2021/09/10 19:36:41;;;;;;;35.60;17.70;;;;;;;18.63;56.52;99151.12;234181;1198;139514;-62
2021/09/10 19:41:44;;;;;;;34.10;17.30;;;;;;;18.50;56.73;99153.91;234302;1198;138652;-62
2021/09/10 19:46:47;;;;;;;31.80;17.20;;;;;;;18.38;56.98;99153.86;233574;1198;138582;-61
2021/09/10 19:51:50;;;;;;;34.60;16.30;;;;;;;18.25;57.32;99157.20;234074;1198;139053;-60
2021/09/10 19:56:56;;;;;;;34.30;14.80;;;;;;;18.14;57.54;99158.29;234075;1198;139130;-61
2021/09/10 20:01:59;;;;;;;33.20;15.60;;;;;;;18.07;57.80;99156.95;234175;1199;141127;-61
2021/09/10 20:07:03;;;;;;;28.80;15.10;;;;;;;18.05;58.05;99157.21;234383;1198;138942;-59
2021/09/10 20:12:06;;;;;;;27.80;13.90;;;;;;;17.98;58.18;99161.20;234271;1198;139405;-61
2021/09/10 20:17:09;;;;;;;31.50;14.40;;;;;;;17.89;58.23;99158.05;234132;1198;138642;-64
2021/09/10 20:22:13;;;;;;;27.30;13.80;;;;;;;17.81;58.33;99162.48;233993;1198;138660;-62
2021/09/10 20:27:16;;;;;;;27.20;13.90;;;;;;;17.70;58.53;99168.56;234244;1197;138805;-61
2021/09/10 20:32:19;;;;;;;29.10;13.60;;;;;;;17.59;58.66;99173.68;234121;1198;138639;-62
2021/09/10 20:37:23;;;;;;;24.80;12.90;;;;;;;17.50;58.90;99174.36;233939;1198;138881;-62
2021/09/10 20:42:26;;;;;;;28.40;14.40;;;;;;;17.41;59.10;99176.74;234160;1198;140832;-62
2021/09/10 20:47:29;;;;;;;31.10;15.00;;;;;;;17.35;59.36;99181.96;234312;1198;138637;-62
2021/09/10 20:52:32;;;;;;;34.20;14.80;;;;;;;17.33;59.56;99181.98;234179;1198;139063;-63
2021/09/10 20:57:35;;;;;;;31.00;15.90;;;;;;;17.29;59.73;99186.73;234264;1198;138660;-61
2021/09/10 21:02:38;;;;;;;29.00;16.70;;;;;;;17.25;59.94;99187.30;234294;1198;139001;-64
2021/09/10 21:07:43;;;;;;;27.70;15.60;;;;;;;17.16;59.75;99181.95;233970;1198;138763;-61
2021/09/10 21:12:46;;;;;;;27.40;16.00;;;;;;;17.05;60.01;99180.91;233613;1198;138284;-63
2021/09/10 21:17:50;;;;;;;32.40;15.40;;;;;;;16.95;60.14;99181.41;234124;1198;138840;-61
2021/09/10 21:22:53;;;;;;;35.50;17.70;;;;;;;16.89;60.49;99181.98;233709;1198;140618;-62
2021/09/10 21:27:56;;;;;;;29.80;18.10;;;;;;;16.84;60.38;99184.34;234151;1198;139397;-63
2021/09/10 21:32:59;;;;;;;31.50;17.30;;;;;;;16.79;60.48;99188.55;234173;1198;139063;-63
2021/09/10 21:38:02;;;;;;;34.80;18.80;;;;;;;16.74;60.57;99187.71;234291;1198;139345;-64
2021/09/10 21:43:05;;;;;;;27.80;17.90;;;;;;;16.66;60.66;99185.67;234411;1198;138756;-61
2021/09/10 21:48:08;;;;;;;34.10;17.70;;;;;;;16.57;60.72;99191.44;234105;1198;139451;-64
2021/09/10 21:53:12;;;;;;;30.70;18.30;;;;;;;16.51;60.96;99193.77;234165;1198;138804;-64
2021/09/10 21:58:15;;;;;;;29.60;17.20;;;;;;;16.45;61.08;99188.73;234009;1198;138414;-64
2021/09/10 22:03:20;;;;;;;26.20;16.50;;;;;;;16.39;61.24;99193.89;233404;1198;139503;-63
2021/09/10 22:08:25;;;;;;;30.50;17.30;;;;;;;16.35;61.20;99194.92;232660;1199;139151;-68
2021/09/10 22:13:29;;;;;;;26.70;16.60;;;;;;;16.32;61.47;99194.80;233101;1195;140439;-61
2021/09/10 22:18:39;;;;;;;30.70;17.10;;;;;;;16.29;61.49;99194.68;232721;1198;139269;-64
2021/09/10 22:23:45;;;;;;;32.80;17.10;;;;;;;16.24;61.63;99194.94;233007;1198;138732;-63
2021/09/10 22:28:50;;;;;;;32.80;17.60;;;;;;;16.17;61.81;99203.04;232490;1198;139361;-62
2021/09/10 22:33:54;;;;;;;29.80;16.60;;;;;;;16.08;61.94;99203.96;232605;1198;140016;-63
2021/09/10 22:38:59;;;;;;;26.50;16.00;;;;;;;16.03;62.12;99201.17;232837;1198;139734;-63
2021/09/10 22:44:05;;;;;;;27.00;16.20;;;;;;;16.00;62.14;99199.48;233765;1198;139572;-60
2021/09/10 22:49:09;;;;;;;33.40;17.40;;;;;;;15.96;62.26;99202.80;234059;1198;138571;-59
2021/09/10 22:54:13;;;;;;;29.20;16.80;;;;;;;15.92;62.23;99199.39;234091;1198;138608;-61
2021/09/10 22:59:16;;;;;;;26.30;16.70;;;;;;;15.88;62.28;99199.91;233796;1196;139953;-64